createdAt,value
2023-05-03T00:00:33.321Z,11.90
2023-05-03T00:03:04.872Z,11.87
2023-05-03T00:05:36.168Z,11.86
2023-05-03T00:08:07.301Z,11.86
2023-05-03T00:10:38.034Z,11.87
2023-05-03T00:13:08.777Z,11.87
2023-05-03T00:15:39.513Z,11.87
2023-05-03T00:18:10.366Z,11.86
2023-05-03T00:20:41.183Z,11.83
2023-05-03T00:23:12.500Z,11.80
2023-05-03T00:25:43.227Z,11.76
2023-05-03T00:28:13.914Z,11.73
2023-05-03T00:30:44.652Z,11.68
2023-05-03T00:33:15.409Z,11.66
2023-05-03T00:35:46.731Z,11.63
2023-05-03T00:38:17.673Z,11.60
2023-05-03T00:40:54.550Z,11.58
2023-05-03T00:43:25.238Z,11.57
2023-05-03T00:46:08.307Z,11.55
2023-05-03T00:48:43.900Z,11.51
2023-05-03T00:51:16.403Z,11.49
2023-05-03T00:53:47.515Z,11.46
2023-05-03T00:56:22.978Z,11.46
2023-05-03T00:58:54.788Z,11.46
2023-05-03T01:01:26.483Z,11.43
2023-05-03T01:03:58.039Z,11.40
2023-05-03T01:06:40.623Z,11.37
2023-05-03T01:09:19.065Z,11.35
2023-05-03T01:11:56.234Z,11.33
2023-05-03T01:14:42.408Z,11.31
2023-05-03T01:17:15.697Z,11.32
2023-05-03T01:19:50.239Z,11.30
2023-05-03T01:22:28.572Z,11.26
2023-05-03T01:25:07.678Z,11.22
2023-05-03T01:27:39.313Z,11.18
2023-05-03T01:30:13.249Z,11.15
2023-05-03T01:32:57.304Z,11.13
2023-05-03T01:35:36.852Z,11.11
2023-05-03T01:38:08.593Z,11.07
2023-05-03T01:40:44.613Z,11.03
2023-05-03T01:43:17.342Z,10.99
2023-05-03T01:45:49.022Z,10.96
2023-05-03T01:48:20.892Z,10.90
2023-05-03T01:50:51.659Z,10.85
2023-05-03T01:53:22.420Z,10.84
2023-05-03T01:55:53.460Z,10.83
2023-05-03T01:58:26.640Z,10.81
2023-05-03T02:01:17.186Z,10.81
2023-05-03T02:03:48.023Z,10.80
2023-05-03T02:06:21.020Z,10.80
2023-05-03T02:08:51.984Z,10.81
2023-05-03T02:11:22.969Z,10.80
2023-05-03T02:14:02.049Z,10.78
2023-05-03T02:16:33.389Z,10.77
2023-05-03T02:19:05.618Z,10.75
2023-05-03T02:21:37.308Z,10.74
2023-05-03T02:24:08.885Z,10.72
2023-05-03T02:26:39.609Z,10.72
2023-05-03T02:29:10.578Z,10.73
2023-05-03T02:31:41.329Z,10.74
2023-05-03T02:34:12.374Z,10.74
2023-05-03T02:36:43.209Z,10.75
2023-05-03T02:39:13.994Z,10.76
2023-05-03T02:41:45.495Z,10.77
2023-05-03T02:44:16.702Z,10.77
2023-05-03T02:46:47.454Z,10.77
2023-05-03T02:49:19.531Z,10.79
2023-05-03T02:51:50.569Z,10.81
2023-05-03T02:54:21.588Z,10.81
2023-05-03T02:56:52.718Z,10.81
2023-05-03T02:59:23.606Z,10.81
2023-05-03T03:01:54.958Z,10.79
2023-05-03T03:04:26.361Z,10.77
2023-05-03T03:06:57.875Z,10.75
2023-05-03T03:09:28.682Z,10.74
2023-05-03T03:11:59.746Z,10.71
2023-05-03T03:14:30.597Z,10.67
2023-05-03T03:17:02.015Z,10.63
2023-05-03T03:19:33.279Z,10.60
2023-05-03T03:22:04.183Z,10.58
2023-05-03T03:24:35.839Z,10.55
2023-05-03T03:27:07.740Z,10.54
2023-05-03T03:29:38.853Z,10.53
2023-05-03T03:32:09.947Z,10.52
2023-05-03T03:34:40.845Z,10.54
2023-05-03T03:37:11.682Z,10.55
2023-05-03T03:39:42.835Z,10.59
2023-05-03T03:42:14.578Z,10.60
2023-05-03T03:44:45.690Z,10.61
2023-05-03T03:47:17.454Z,10.63
2023-05-03T03:49:48.648Z,10.65
2023-05-03T03:52:19.467Z,10.64
2023-05-03T03:54:50.255Z,10.63
2023-05-03T03:57:21.382Z,10.61
2023-05-03T03:59:52.369Z,10.57
2023-05-03T04:02:24.683Z,10.58
2023-05-03T04:04:55.734Z,10.59
2023-05-03T04:07:27.025Z,10.59
2023-05-03T04:09:59.049Z,10.62
2023-05-03T04:12:30.309Z,10.63
2023-05-03T04:15:01.689Z,10.64
2023-05-03T04:17:34.946Z,10.65
2023-05-03T04:20:11.064Z,10.70
2023-05-03T04:22:43.007Z,10.76
2023-05-03T04:25:15.143Z,10.82
2023-05-03T04:27:47.488Z,10.94
2023-05-03T04:30:18.655Z,11.11
2023-05-03T04:32:54.403Z,11.28
2023-05-03T04:35:26.945Z,11.44
2023-05-03T04:37:58.142Z,11.66
2023-05-03T04:40:30.136Z,12.04
2023-05-03T04:43:06.715Z,12.38
2023-05-03T04:45:40.971Z,12.76
2023-05-03T04:48:13.245Z,13.46
2023-05-03T04:50:44.824Z,14.45
2023-05-03T04:53:16.858Z,15.03
2023-05-03T04:55:50.656Z,15.25
2023-05-03T04:58:21.640Z,15.26
2023-05-03T05:00:52.654Z,15.16
2023-05-03T05:03:28.525Z,15.05
2023-05-03T05:05:59.617Z,15.04
2023-05-03T05:08:30.460Z,15.39
2023-05-03T05:11:02.862Z,16.23
2023-05-03T05:13:34.410Z,17.13
2023-05-03T05:16:06.483Z,17.98
2023-05-03T05:18:38.226Z,18.79
2023-05-03T05:21:09.765Z,19.62
2023-05-03T05:23:41.648Z,20.50
2023-05-03T05:26:12.393Z,21.33
2023-05-03T05:28:43.153Z,22.06
2023-05-03T05:31:14.358Z,22.80
2023-05-03T05:33:46.804Z,23.60
2023-05-03T05:36:18.490Z,24.37
2023-05-03T05:38:49.415Z,25.15
2023-05-03T05:41:21.237Z,25.87
2023-05-03T05:43:52.133Z,26.56
2023-05-03T05:46:23.379Z,27.14
2023-05-03T05:48:55.764Z,27.69
2023-05-03T05:51:28.111Z,28.13
2023-05-03T05:53:59.244Z,28.49
2023-05-03T05:56:29.991Z,28.81
2023-05-03T05:59:01.067Z,29.09
2023-05-03T06:01:33.630Z,29.32
2023-05-03T06:04:05.077Z,29.55
2023-05-03T06:06:36.407Z,29.80
2023-05-03T06:09:23.494Z,30.10
2023-05-03T06:11:58.034Z,30.48
2023-05-03T06:14:30.722Z,30.77
2023-05-03T06:17:02.329Z,31.06
2023-05-03T06:19:33.128Z,31.39
2023-05-03T06:22:03.912Z,31.60
2023-05-03T06:24:35.866Z,31.77
2023-05-03T06:27:06.736Z,31.94
2023-05-03T06:29:38.272Z,31.96
2023-05-03T06:32:09.407Z,31.97
2023-05-03T06:34:43.230Z,32.10
2023-05-03T06:37:14.305Z,32.42
2023-05-03T06:39:45.101Z,32.68
2023-05-03T06:42:15.949Z,32.83
2023-05-03T06:44:48.437Z,33.07
2023-05-03T06:47:20.670Z,33.23
2023-05-03T06:49:51.602Z,33.35
2023-05-03T06:52:22.293Z,33.55
2023-05-03T06:54:53.617Z,33.75
2023-05-03T06:57:27.494Z,33.80
2023-05-03T06:59:59.544Z,33.88
2023-05-03T07:02:30.267Z,34.02
2023-05-03T07:05:01.470Z,34.11
2023-05-03T07:07:32.253Z,34.14
2023-05-03T07:10:03.532Z,33.98
2023-05-03T07:12:34.567Z,33.97
2023-05-03T07:15:08.648Z,34.00
2023-05-03T07:17:39.607Z,33.81
2023-05-03T07:20:12.506Z,33.57
2023-05-03T07:22:43.261Z,33.35
2023-05-03T07:25:16.858Z,33.07
2023-05-03T07:27:47.883Z,32.77
2023-05-03T07:30:19.303Z,32.26
2023-05-03T07:32:50.841Z,31.55
2023-05-03T07:35:23.294Z,30.96
2023-05-03T07:37:54.302Z,30.51
2023-05-03T07:40:25.169Z,30.18
2023-05-03T07:42:55.948Z,29.95
2023-05-03T07:45:27.307Z,29.77
2023-05-03T07:47:59.117Z,29.51
2023-05-03T07:50:29.994Z,29.09
2023-05-03T07:53:00.952Z,28.73
2023-05-03T07:55:33.171Z,28.33
2023-05-03T07:58:04.825Z,27.90
2023-05-03T08:00:35.877Z,27.40
2023-05-03T08:03:07.035Z,27.09
2023-05-03T08:05:38.091Z,26.89
2023-05-03T08:08:09.312Z,26.70
2023-05-03T08:10:40.034Z,26.30
2023-05-03T08:13:11.702Z,25.86
2023-05-03T08:15:42.552Z,25.43
2023-05-03T08:18:13.265Z,25.01
2023-05-03T08:20:44.088Z,24.72
2023-05-03T08:23:17.011Z,24.44
2023-05-03T08:25:48.435Z,24.10
2023-05-03T08:28:19.386Z,23.91
2023-05-03T08:30:50.211Z,23.69
2023-05-03T08:33:20.848Z,23.56
2023-05-03T08:35:52.726Z,23.55
2023-05-03T08:38:23.881Z,23.56
2023-05-03T08:40:59.340Z,23.54
2023-05-03T08:43:31.463Z,23.42
2023-05-03T08:46:02.292Z,23.20
2023-05-03T08:48:34.049Z,22.95
2023-05-03T08:51:10.020Z,22.81
2023-05-03T08:53:40.819Z,22.80
2023-05-03T08:56:13.613Z,22.82
2023-05-03T08:58:44.547Z,22.91
2023-05-03T09:01:15.843Z,22.99
2023-05-03T09:03:52.957Z,22.93
2023-05-03T09:06:26.413Z,22.88
2023-05-03T09:08:57.839Z,22.92
2023-05-03T09:11:30.338Z,22.99
2023-05-03T09:14:13.601Z,23.13
2023-05-03T09:16:46.811Z,23.11
2023-05-03T09:19:18.636Z,22.81
2023-05-03T09:21:49.532Z,22.36
2023-05-03T09:24:21.606Z,21.98
2023-05-03T09:26:54.363Z,21.81
2023-05-03T09:29:32.743Z,21.68
2023-05-03T09:32:06.262Z,21.61
2023-05-03T09:34:38.297Z,21.52
2023-05-03T09:37:09.033Z,21.49
2023-05-03T09:39:39.804Z,21.56
2023-05-03T09:42:18.657Z,21.61
2023-05-03T09:44:51.742Z,21.63
2023-05-03T09:47:25.501Z,21.60
2023-05-03T09:49:56.716Z,21.49
2023-05-03T09:52:30.410Z,21.36
2023-05-03T09:55:01.401Z,21.42
2023-05-03T09:57:34.836Z,21.52
2023-05-03T10:00:06.364Z,21.61
2023-05-03T10:02:43.545Z,21.79
2023-05-03T10:05:21.434Z,21.95
2023-05-03T10:07:52.077Z,22.12
2023-05-03T10:10:23.693Z,22.30
2023-05-03T10:12:54.788Z,22.42
2023-05-03T10:15:30.696Z,22.42
2023-05-03T10:18:08.009Z,22.28
2023-05-03T10:20:45.347Z,22.12
2023-05-03T10:23:16.824Z,22.07
2023-05-03T10:26:17.690Z,22.09
2023-05-03T10:28:49.649Z,22.13
2023-05-03T10:31:48.364Z,22.18
2023-05-03T10:34:27.056Z,22.01
2023-05-03T10:36:57.968Z,21.83
2023-05-03T10:39:30.715Z,21.63
2023-05-03T10:42:04.236Z,21.46
2023-05-03T10:44:42.410Z,21.40
2023-05-03T10:47:18.073Z,21.39
2023-05-03T10:50:09.241Z,21.33
2023-05-03T10:52:53.497Z,21.36
2023-05-03T10:55:29.032Z,21.33
2023-05-03T10:58:01.535Z,21.21
2023-05-03T11:00:38.702Z,21.11
2023-05-03T11:03:29.387Z,20.90
2023-05-03T11:06:00.126Z,20.60
2023-05-03T11:08:37.502Z,20.39
2023-05-03T11:11:09.609Z,20.18
2023-05-03T11:13:40.437Z,19.93
2023-05-03T11:16:12.023Z,19.71
2023-05-03T11:18:42.878Z,19.49
2023-05-03T11:21:14.580Z,19.35
2023-05-03T11:23:46.252Z,19.22
2023-05-03T11:26:17.673Z,19.17
2023-05-03T11:28:49.351Z,19.13
2023-05-03T11:31:22.139Z,19.17
2023-05-03T11:33:53.632Z,19.26
2023-05-03T11:36:28.038Z,19.34
2023-05-03T11:38:59.126Z,19.45
2023-05-03T11:41:29.892Z,19.52
2023-05-03T11:44:14.891Z,19.59
2023-05-03T11:46:49.191Z,19.66
2023-05-03T11:49:21.901Z,19.68
2023-05-03T11:51:54.844Z,19.72
2023-05-03T11:54:28.464Z,19.79
2023-05-03T11:57:02.024Z,19.84
2023-05-03T11:59:47.507Z,19.90
2023-05-03T12:02:18.656Z,19.93
2023-05-03T12:04:49.655Z,19.89
2023-05-03T12:07:22.920Z,19.83
2023-05-03T12:10:10.776Z,19.72
2023-05-03T12:12:56.816Z,19.55
2023-05-03T12:15:40.328Z,19.37
2023-05-03T12:19:03.283Z,19.15
2023-05-03T12:24:24.688Z,18.80
2023-05-03T12:26:57.505Z,18.77
2023-05-03T12:29:49.667Z,18.79
2023-05-03T12:36:53.991Z,18.69
2023-05-03T12:39:27.556Z,18.62
2023-05-03T12:44:35.119Z,18.49
2023-05-03T12:47:11.461Z,18.40
2023-05-03T12:49:46.451Z,18.29
2023-05-03T12:52:37.157Z,18.18
2023-05-03T12:55:11.613Z,18.06
2023-05-03T12:57:45.734Z,17.94
2023-05-03T13:00:24.970Z,17.85
2023-05-03T13:05:36.216Z,17.72
2023-05-03T13:08:09.783Z,17.69
2023-05-03T13:10:43.260Z,17.71
2023-05-03T13:13:14.297Z,17.75
2023-05-03T13:15:45.295Z,17.76
2023-05-03T13:18:16.492Z,17.77
2023-05-03T13:20:49.011Z,17.80
2023-05-03T13:23:19.855Z,17.84
2023-05-03T13:25:54.335Z,17.88
2023-05-03T13:28:25.093Z,17.91
2023-05-03T13:30:56.149Z,17.87
2023-05-03T13:33:28.881Z,17.83
2023-05-03T13:35:59.692Z,17.81
2023-05-03T13:38:30.458Z,17.82
2023-05-03T13:41:01.320Z,17.81
2023-05-03T13:43:32.337Z,17.81
2023-05-03T13:46:04.502Z,17.82
2023-05-03T13:48:35.479Z,17.79
2023-05-03T13:51:12.438Z,17.73
2023-05-03T13:53:44.286Z,17.69
2023-05-03T13:56:15.126Z,17.65
2023-05-03T13:58:47.188Z,17.59
2023-05-03T14:01:18.067Z,17.56
2023-05-03T14:03:50.346Z,17.53
2023-05-03T14:06:21.992Z,17.49
2023-05-03T14:08:54.416Z,17.42
2023-05-03T14:11:25.764Z,17.36
2023-05-03T14:13:57.729Z,17.32
2023-05-03T14:19:03.526Z,17.18
2023-05-03T14:21:34.736Z,17.13
2023-05-03T14:24:06.881Z,17.09
2023-05-03T14:26:37.873Z,17.07
2023-05-03T14:29:08.589Z,17.07
2023-05-03T14:31:39.804Z,17.08
2023-05-03T14:34:10.632Z,17.07
2023-05-03T14:36:43.829Z,17.06
2023-05-03T14:43:34.586Z,16.99
2023-05-03T14:46:05.655Z,16.92
2023-05-03T14:48:36.444Z,16.86
2023-05-03T14:51:07.980Z,16.81
2023-05-03T14:53:38.724Z,16.78
2023-05-03T14:56:10.103Z,16.78
2023-05-03T14:58:41.469Z,16.77
2023-05-03T15:01:19.652Z,16.73
2023-05-03T15:03:50.854Z,16.72
2023-05-03T15:06:28.870Z,16.70
2023-05-03T15:09:00.165Z,16.68
2023-05-03T15:15:23.703Z,16.56
2023-05-03T15:17:54.765Z,16.51
2023-05-03T15:20:25.666Z,16.48
2023-05-03T15:22:56.483Z,16.44
2023-05-03T15:25:27.704Z,16.37
2023-05-03T15:28:00.610Z,16.29
2023-05-03T15:30:32.245Z,16.20
2023-05-03T15:33:05.093Z,16.13
2023-05-03T15:35:40.008Z,16.10
2023-05-03T15:38:10.920Z,16.06
2023-05-03T15:40:41.824Z,16.01
2023-05-03T15:43:12.534Z,15.97
2023-05-03T15:45:43.270Z,15.96
2023-05-03T15:48:14.425Z,15.95
2023-05-03T15:50:45.185Z,15.96
2023-05-03T15:53:16.247Z,15.97
2023-05-03T15:55:47.233Z,15.95
2023-05-03T15:58:19.366Z,15.93
2023-05-03T16:00:50.514Z,15.93
2023-05-03T16:03:21.731Z,15.91
2023-05-03T16:05:54.334Z,15.89
2023-05-03T16:09:49.668Z,15.86
2023-05-03T16:12:20.503Z,15.83
2023-05-03T16:14:52.034Z,15.79
2023-05-03T16:18:22.016Z,15.76
2023-05-03T16:24:52.386Z,15.69
2023-05-03T16:27:29.404Z,15.66
2023-05-03T16:30:07.429Z,15.63
2023-05-03T16:32:44.406Z,15.62
2023-05-03T16:40:13.535Z,15.56
2023-05-03T16:42:44.353Z,15.53
2023-05-03T16:49:59.862Z,15.42
2023-05-03T16:52:31.578Z,15.38
2023-05-03T16:55:02.922Z,15.35
2023-05-03T16:57:38.719Z,15.33
2023-05-03T17:00:14.300Z,15.30
2023-05-03T17:02:49.615Z,15.28
2023-05-03T17:05:24.963Z,15.25
2023-05-03T17:07:56.526Z,15.22
2023-05-03T17:10:28.913Z,15.19
2023-05-03T17:13:01.334Z,15.16
2023-05-03T17:15:33.753Z,15.14
2023-05-03T17:18:05.838Z,15.11
2023-05-03T17:20:38.253Z,15.06
2023-05-03T17:23:09.664Z,15.04
2023-05-03T17:25:44.482Z,15.00
2023-05-03T17:28:16.057Z,14.97
2023-05-03T17:31:19.552Z,14.92
2023-05-03T17:33:52.189Z,14.87
2023-05-03T17:36:24.369Z,14.81
2023-05-03T17:39:09.637Z,14.77
2023-05-03T17:41:41.595Z,14.73
2023-05-03T17:44:18.428Z,14.66
2023-05-03T17:46:50.123Z,14.58
2023-05-03T17:49:21.073Z,14.52
2023-05-03T17:52:08.138Z,14.45
2023-05-03T17:54:43.241Z,14.38
2023-05-03T18:36:28.257Z,14.28
2023-05-03T19:31:30.932Z,13.16
2023-05-03T20:01:09.851Z,12.53
2023-05-03T20:07:49.271Z,11.99
2023-05-03T20:13:53.975Z,11.63
2023-05-03T20:16:27.448Z,11.48
2023-05-03T20:19:58.006Z,11.34
2023-05-03T20:34:37.038Z,11.37
2023-05-03T21:43:19.577Z,10.75
2023-05-03T21:45:48.298Z,10.55
2023-05-03T21:48:16.223Z,10.38
2023-05-03T21:50:45.432Z,10.23
2023-05-03T21:53:13.941Z,10.07
2023-05-03T21:55:41.913Z,9.93
2023-05-03T21:58:10.243Z,9.80
2023-05-03T22:00:39.501Z,9.68
2023-05-03T22:03:08.107Z,9.57
2023-05-03T22:05:41.538Z,9.46
2023-05-03T22:08:12.343Z,9.36
2023-05-03T22:10:40.895Z,9.27
2023-05-03T22:13:08.898Z,9.19
2023-05-03T22:15:38.392Z,9.13
2023-05-03T22:18:06.554Z,9.07
2023-05-03T22:20:34.714Z,9.01
2023-05-03T22:23:02.824Z,8.95
2023-05-03T22:25:32.421Z,8.90
2023-05-03T22:28:00.888Z,8.85
2023-05-03T22:30:29.157Z,8.79
2023-05-03T22:32:57.242Z,8.74
2023-05-03T22:35:25.374Z,8.70
2023-05-03T22:37:53.344Z,8.65
2023-05-03T22:40:21.445Z,8.61
2023-05-03T22:42:49.466Z,8.57
2023-05-03T22:45:17.636Z,8.53
2023-05-03T22:47:45.637Z,8.49
2023-05-03T22:50:16.995Z,8.45
2023-05-03T22:52:45.101Z,8.42
2023-05-03T22:55:13.426Z,8.39
2023-05-03T22:57:41.554Z,8.35
2023-05-03T23:00:14.842Z,8.31
2023-05-03T23:02:42.865Z,8.25
2023-05-03T23:05:14.385Z,8.20
2023-05-03T23:07:42.714Z,8.15
2023-05-03T23:10:11.550Z,8.10
2023-05-03T23:12:39.719Z,8.06
2023-05-03T23:15:09.733Z,8.03
2023-05-03T23:17:37.884Z,7.99
2023-05-03T23:20:09.287Z,7.96
2023-05-03T23:23:02.936Z,7.89
2023-05-03T23:25:35.680Z,7.87
2023-05-03T23:28:53.090Z,7.83
2023-05-03T23:35:09.794Z,7.75
2023-05-03T23:37:37.795Z,7.72
2023-05-03T23:40:07.887Z,7.71
2023-05-03T23:42:35.926Z,7.68
2023-05-03T23:45:04.732Z,7.66
2023-05-03T23:47:32.722Z,7.63
2023-05-03T23:50:03.619Z,7.61
2023-05-03T23:52:31.902Z,7.59
2023-05-03T23:55:00.238Z,7.56
2023-05-03T23:57:28.199Z,7.54
